createdAt,value
2022-12-03T00:01:54.104Z,5.70
2022-12-03T00:04:23.613Z,5.70
2022-12-03T00:06:53.133Z,5.70
2022-12-03T00:09:22.643Z,5.70
2022-12-03T00:11:52.077Z,5.70
2022-12-03T00:14:21.539Z,5.70
2022-12-03T00:16:50.967Z,5.60
2022-12-03T00:19:27.173Z,5.60
2022-12-03T00:21:57.624Z,5.70
2022-12-03T00:24:27.084Z,5.70
2022-12-03T00:26:56.724Z,5.70
2022-12-03T00:29:26.228Z,5.70
2022-12-03T00:31:55.666Z,5.70
2022-12-03T00:34:25.105Z,5.70
2022-12-03T00:36:54.544Z,5.70
2022-12-03T00:39:25.543Z,5.70
2022-12-03T00:41:54.965Z,5.70
2022-12-03T00:44:24.411Z,5.70
2022-12-03T00:46:53.953Z,5.70
2022-12-03T00:49:23.526Z,5.70
2022-12-03T00:51:52.937Z,5.80
2022-12-03T00:54:26.828Z,5.70
2022-12-03T00:56:53.687Z,5.70
2022-12-03T00:59:23.328Z,5.70
2022-12-03T01:01:52.939Z,5.70
2022-12-03T01:04:23.715Z,5.70
2022-12-03T01:06:53.478Z,5.70
2022-12-03T01:09:23.014Z,5.70
2022-12-03T01:11:52.441Z,5.70
2022-12-03T01:14:22.794Z,5.70
2022-12-03T01:16:52.500Z,5.70
2022-12-03T01:19:22.401Z,5.70
2022-12-03T01:21:52.999Z,5.70
2022-12-03T01:24:23.471Z,5.70
2022-12-03T01:26:53.034Z,5.70
2022-12-03T01:29:23.293Z,5.70
2022-12-03T01:32:11.035Z,5.70
2022-12-03T01:34:40.463Z,5.70
2022-12-03T01:37:09.964Z,5.70
2022-12-03T01:39:39.525Z,5.70
2022-12-03T01:42:12.117Z,5.70
2022-12-03T01:44:43.306Z,5.80
2022-12-03T01:47:19.459Z,5.70
2022-12-03T01:49:51.974Z,5.80
2022-12-03T01:52:27.780Z,5.80
2022-12-03T01:55:00.179Z,5.70
2022-12-03T01:57:32.684Z,5.60
2022-12-03T02:00:04.075Z,5.50
2022-12-03T02:02:35.632Z,5.50
2022-12-03T02:05:26.608Z,5.50
2022-12-03T02:07:57.161Z,5.60
2022-12-03T02:10:29.713Z,5.70
2022-12-03T02:13:11.160Z,5.70
2022-12-03T02:15:41.525Z,5.70
2022-12-03T02:18:12.131Z,5.70
2022-12-03T02:20:53.283Z,5.70
2022-12-03T02:23:43.583Z,5.70
2022-12-03T02:26:13.638Z,5.70
2022-12-03T02:28:43.284Z,5.70
2022-12-03T02:31:12.763Z,5.80
2022-12-03T02:33:42.397Z,5.70
2022-12-03T02:36:13.462Z,5.70
2022-12-03T02:38:44.695Z,5.80
2022-12-03T02:41:18.846Z,5.70
2022-12-03T02:43:49.011Z,5.70
2022-12-03T02:46:18.544Z,5.60
2022-12-03T02:48:48.087Z,5.60
2022-12-03T02:51:18.851Z,5.70
2022-12-03T02:53:51.411Z,5.70
2022-12-03T02:56:21.594Z,5.70
2022-12-03T02:58:54.022Z,5.70
2022-12-03T03:01:23.599Z,5.70
2022-12-03T03:03:54.067Z,5.70
2022-12-03T03:06:25.621Z,5.70
2022-12-03T03:08:55.257Z,5.60
2022-12-03T03:11:25.622Z,5.60
2022-12-03T03:13:55.183Z,5.60
2022-12-03T03:16:26.672Z,5.60
2022-12-03T03:18:57.091Z,5.70
2022-12-03T03:21:26.602Z,5.70
2022-12-03T03:25:43.760Z,5.70
2022-12-03T03:28:14.850Z,5.70
2022-12-03T03:30:46.550Z,5.70
2022-12-03T03:33:16.936Z,5.60
2022-12-03T03:35:48.872Z,5.50
2022-12-03T03:38:20.715Z,5.40
2022-12-03T03:40:51.983Z,5.30
2022-12-03T03:43:25.835Z,5.30
2022-12-03T03:45:56.551Z,5.40
2022-12-03T03:48:26.197Z,5.30
2022-12-03T03:50:55.796Z,5.30
2022-12-03T03:53:26.927Z,5.30
2022-12-03T03:55:56.485Z,5.30
2022-12-03T03:58:25.940Z,5.30
2022-12-03T04:00:55.457Z,5.30
2022-12-03T04:03:24.942Z,5.30
2022-12-03T04:05:53.576Z,5.30
2022-12-03T04:08:23.125Z,5.30
2022-12-03T04:11:10.386Z,5.30
2022-12-03T04:13:39.824Z,5.20
2022-12-03T04:16:09.395Z,5.20
2022-12-03T04:18:44.610Z,5.20
2022-12-03T04:21:37.850Z,5.30
2022-12-03T04:24:09.461Z,5.30
2022-12-03T04:26:57.251Z,5.30
2022-12-03T04:29:26.688Z,5.30
2022-12-03T04:32:14.011Z,5.30
2022-12-03T04:35:01.665Z,5.30
2022-12-03T04:37:31.178Z,5.20
2022-12-03T04:39:59.828Z,5.20
2022-12-03T04:42:29.173Z,5.20
2022-12-03T04:44:58.779Z,5.20
2022-12-03T04:47:28.269Z,5.20
2022-12-03T04:49:57.848Z,5.10
2022-12-03T04:52:27.301Z,5.20
2022-12-03T04:54:56.967Z,5.20
2022-12-03T04:57:26.483Z,5.20
2022-12-03T04:59:55.966Z,5.20
2022-12-03T05:02:25.568Z,5.30
2022-12-03T05:04:55.196Z,5.20
2022-12-03T05:07:25.914Z,5.10
2022-12-03T05:09:55.403Z,5.10
2022-12-03T05:12:24.845Z,5.10
2022-12-03T05:14:54.565Z,5.30
2022-12-03T05:17:25.306Z,5.30
2022-12-03T05:20:12.326Z,5.30
2022-12-03T05:22:41.755Z,5.30
2022-12-03T05:25:11.695Z,5.40
2022-12-03T05:27:41.323Z,5.40
2022-12-03T05:30:11.721Z,5.40
2022-12-03T05:32:41.188Z,5.40
2022-12-03T05:35:11.755Z,5.40
2022-12-03T05:37:41.180Z,5.40
2022-12-03T05:40:12.686Z,5.40
2022-12-03T05:43:01.626Z,5.40
2022-12-03T05:45:40.124Z,5.40
2022-12-03T05:48:12.876Z,5.30
2022-12-03T05:50:44.765Z,5.30
2022-12-03T05:53:18.696Z,5.30
2022-12-03T05:55:48.189Z,5.30
2022-12-03T05:58:17.622Z,5.30
2022-12-03T06:00:47.050Z,5.30
2022-12-03T06:03:16.695Z,5.20
2022-12-03T06:05:47.343Z,5.20
2022-12-03T06:08:16.905Z,5.20
2022-12-03T06:10:46.518Z,5.20
2022-12-03T06:13:16.012Z,5.30
2022-12-03T06:15:45.518Z,5.30
2022-12-03T06:18:16.651Z,5.30
2022-12-03T06:20:46.080Z,5.30
2022-12-03T06:23:15.515Z,5.30
2022-12-03T06:25:44.962Z,5.20
2022-12-03T06:28:14.459Z,5.00
2022-12-03T06:30:44.189Z,5.00
2022-12-03T06:33:13.721Z,5.10
2022-12-03T06:35:43.205Z,5.10
2022-12-03T06:38:14.367Z,5.10
2022-12-03T06:40:43.988Z,5.10
2022-12-03T06:43:13.425Z,5.00
2022-12-03T06:45:47.517Z,5.00
2022-12-03T06:48:14.014Z,5.00
2022-12-03T06:50:43.440Z,5.00
2022-12-03T06:53:12.869Z,5.00
2022-12-03T06:55:42.422Z,5.10
2022-12-03T06:58:11.856Z,5.20
2022-12-03T07:00:41.357Z,5.20
2022-12-03T07:03:10.885Z,5.20
2022-12-03T07:05:40.807Z,5.20
2022-12-03T07:08:10.439Z,5.20
2022-12-03T07:10:39.982Z,5.20
2022-12-03T07:13:09.423Z,5.20
2022-12-03T07:15:38.870Z,5.20
2022-12-03T07:18:08.482Z,5.20
2022-12-03T07:20:37.981Z,5.20
2022-12-03T07:23:07.437Z,5.20
2022-12-03T07:25:37.616Z,5.20
2022-12-03T07:28:07.058Z,5.20
2022-12-03T07:30:36.519Z,5.10
2022-12-03T07:33:06.013Z,5.20
2022-12-03T07:35:35.449Z,5.20
2022-12-03T07:38:04.917Z,5.30
2022-12-03T07:40:34.338Z,5.20
2022-12-03T07:43:03.787Z,5.20
2022-12-03T07:45:34.527Z,5.20
2022-12-03T07:48:04.028Z,5.30
2022-12-03T07:50:33.526Z,5.30
2022-12-03T07:53:02.969Z,5.30
2022-12-03T07:55:32.498Z,5.30
2022-12-03T07:58:01.927Z,5.30
2022-12-03T08:00:31.822Z,5.10
2022-12-03T08:03:01.330Z,5.10
2022-12-03T08:05:30.830Z,5.10
2022-12-03T08:08:01.791Z,5.10
2022-12-03T08:10:32.007Z,5.20
2022-12-03T08:13:03.642Z,5.30
2022-12-03T08:15:39.127Z,5.30
2022-12-03T08:18:17.872Z,5.30
2022-12-03T08:20:49.752Z,5.30
2022-12-03T08:23:22.398Z,5.40
2022-12-03T08:25:53.721Z,5.50
2022-12-03T08:28:29.602Z,5.60
2022-12-03T08:31:05.099Z,5.50
2022-12-03T08:33:36.887Z,5.60
2022-12-03T08:36:16.184Z,5.70
2022-12-03T08:38:57.341Z,5.50
2022-12-03T08:41:44.480Z,5.40
2022-12-03T08:44:29.841Z,5.40
2022-12-03T08:47:05.038Z,5.60
2022-12-03T08:49:34.480Z,5.80
2022-12-03T08:52:09.603Z,5.60
2022-12-03T08:54:39.200Z,5.70
2022-12-03T08:57:29.504Z,5.60
2022-12-03T09:00:04.211Z,5.60
2022-12-03T09:02:35.343Z,5.70
2022-12-03T09:05:14.620Z,5.60
2022-12-03T09:07:44.132Z,5.60
2022-12-03T09:10:13.669Z,5.60
2022-12-03T09:12:43.140Z,5.60
2022-12-03T09:15:12.749Z,5.70
2022-12-03T09:17:42.259Z,5.80
2022-12-03T09:20:13.331Z,6.00
2022-12-03T09:22:42.904Z,6.50
2022-12-03T09:25:12.465Z,7.00
2022-12-03T09:27:41.929Z,6.90
2022-12-03T09:30:11.701Z,7.60
2022-12-03T09:32:41.185Z,8.10
2022-12-03T09:35:11.398Z,8.00
2022-12-03T09:37:40.828Z,8.20
2022-12-03T09:40:12.051Z,8.90
2022-12-03T09:42:42.723Z,8.50
2022-12-03T09:45:14.775Z,8.70
2022-12-03T09:47:48.219Z,8.80
2022-12-03T09:50:26.343Z,8.70
2022-12-03T09:52:59.143Z,8.60
2022-12-03T09:55:29.648Z,8.30
2022-12-03T09:58:00.849Z,7.80
2022-12-03T10:00:31.538Z,7.60
2022-12-03T10:03:04.382Z,7.80
2022-12-03T10:05:35.628Z,7.80
2022-12-03T10:08:08.167Z,7.70
2022-12-03T10:10:40.664Z,7.70
2022-12-03T10:13:13.149Z,7.60
2022-12-03T10:15:42.698Z,7.60
2022-12-03T10:18:15.186Z,7.50
2022-12-03T10:20:44.679Z,7.50
2022-12-03T10:23:28.791Z,7.60
2022-12-03T10:26:01.865Z,7.50
2022-12-03T10:28:34.822Z,7.50
2022-12-03T10:31:07.384Z,7.50
2022-12-03T10:33:41.802Z,7.50
2022-12-03T10:36:20.714Z,7.50
2022-12-03T10:39:09.480Z,7.50
2022-12-03T10:41:39.731Z,7.50
2022-12-03T10:44:26.007Z,7.40
2022-12-03T10:47:07.203Z,7.20
2022-12-03T10:49:37.660Z,7.10
2022-12-03T10:52:10.119Z,7.20
2022-12-03T10:54:39.643Z,7.20
2022-12-03T10:57:12.996Z,7.30
2022-12-03T10:59:43.567Z,7.20
2022-12-03T11:02:21.914Z,7.20
2022-12-03T11:04:53.264Z,7.20
2022-12-03T11:07:25.359Z,7.30
2022-12-03T11:09:55.458Z,7.40
2022-12-03T11:12:28.250Z,7.40
2022-12-03T11:15:02.220Z,7.50
2022-12-03T11:17:51.785Z,7.40
2022-12-03T11:20:33.279Z,7.50
2022-12-03T11:23:02.803Z,7.50
2022-12-03T11:25:37.974Z,7.40
2022-12-03T11:28:16.536Z,7.40
2022-12-03T11:30:56.529Z,7.50
2022-12-03T11:33:38.403Z,7.50
2022-12-03T11:36:10.739Z,7.60
2022-12-03T11:38:50.731Z,7.70
2022-12-03T11:41:20.876Z,7.60
2022-12-03T11:43:58.077Z,7.60
2022-12-03T11:46:30.618Z,7.60
2022-12-03T11:49:01.341Z,7.60
2022-12-03T11:51:31.800Z,7.50
2022-12-03T11:54:01.605Z,7.50
2022-12-03T11:56:32.782Z,7.50
2022-12-03T11:59:04.865Z,7.40
2022-12-03T12:01:42.786Z,7.60
2022-12-03T12:04:32.487Z,7.70
2022-12-03T12:07:02.833Z,7.70
2022-12-03T12:09:52.439Z,7.70
2022-12-03T12:12:30.398Z,7.70
2022-12-03T12:15:01.563Z,7.70
2022-12-03T12:17:38.043Z,7.60
2022-12-03T12:20:16.299Z,7.70
2022-12-03T12:22:45.721Z,7.60
2022-12-03T12:25:36.394Z,7.70
2022-12-03T12:28:05.955Z,7.60
2022-12-03T12:30:36.059Z,7.70
2022-12-03T12:33:14.347Z,7.60
2022-12-03T12:35:44.748Z,7.70
2022-12-03T12:38:19.963Z,7.80
2022-12-03T12:40:52.405Z,7.90
2022-12-03T12:43:27.514Z,7.80
2022-12-03T12:46:13.464Z,7.80
2022-12-03T12:48:34.275Z,7.80
2022-12-03T12:51:15.272Z,7.90
2022-12-03T12:53:44.688Z,7.90
2022-12-03T12:56:26.052Z,7.70
2022-12-03T12:58:57.121Z,7.80
2022-12-03T13:01:29.992Z,7.80
2022-12-03T13:03:59.883Z,7.90
2022-12-03T13:06:32.873Z,7.90
2022-12-03T13:09:02.373Z,8.00
2022-12-03T13:11:44.932Z,8.00
2022-12-03T13:14:26.334Z,8.00
2022-12-03T13:16:57.858Z,8.00
2022-12-03T13:19:39.594Z,8.10
2022-12-03T13:22:13.256Z,8.10
2022-12-03T13:24:48.304Z,8.10
2022-12-03T13:27:20.880Z,8.00
2022-12-03T13:29:59.509Z,8.10
2022-12-03T13:32:40.227Z,8.10
2022-12-03T13:35:12.753Z,8.00
2022-12-03T13:37:42.323Z,7.90
2022-12-03T13:40:30.771Z,8.00
2022-12-03T13:43:00.935Z,8.00
2022-12-03T13:45:33.551Z,8.00
2022-12-03T13:48:06.031Z,8.00
2022-12-03T13:50:38.719Z,8.00
2022-12-03T13:53:15.258Z,8.00
2022-12-03T13:55:47.989Z,7.90
2022-12-03T13:58:16.623Z,7.90
2022-12-03T14:00:46.233Z,7.90
2022-12-03T14:03:18.707Z,7.90
2022-12-03T14:05:48.210Z,8.00
2022-12-03T14:08:18.188Z,8.00
2022-12-03T14:10:47.714Z,8.00
2022-12-03T14:13:17.211Z,8.00
2022-12-03T14:15:46.646Z,8.00
2022-12-03T14:18:16.149Z,8.00
2022-12-03T14:20:48.269Z,7.90
2022-12-03T14:23:17.778Z,7.90
2022-12-03T14:25:47.268Z,7.90
2022-12-03T14:28:16.703Z,7.90
2022-12-03T14:30:46.168Z,7.90
2022-12-03T14:33:15.601Z,7.90
2022-12-03T14:35:45.028Z,7.80
2022-12-03T14:38:16.309Z,7.80
2022-12-03T14:40:45.880Z,7.90
2022-12-03T14:43:15.453Z,7.90
2022-12-03T14:45:45.054Z,7.80
2022-12-03T14:48:14.479Z,7.90
2022-12-03T14:50:43.918Z,7.80
2022-12-03T14:53:13.359Z,7.90
2022-12-03T14:55:42.851Z,7.90
2022-12-03T14:58:12.291Z,7.90
2022-12-03T15:00:51.218Z,7.90
2022-12-03T15:03:22.559Z,7.90
2022-12-03T15:06:02.504Z,7.90
2022-12-03T15:08:34.005Z,7.80
2022-12-03T15:11:15.233Z,7.80
2022-12-03T15:13:46.359Z,7.70
2022-12-03T15:16:15.899Z,7.70
2022-12-03T15:18:45.818Z,7.70
2022-12-03T15:21:15.329Z,7.70
2022-12-03T15:23:44.767Z,7.70
2022-12-03T15:26:14.262Z,7.70
2022-12-03T15:28:48.056Z,7.70
2022-12-03T15:31:14.894Z,7.60
2022-12-03T15:33:44.346Z,7.60
2022-12-03T15:36:13.855Z,7.60
2022-12-03T15:38:43.381Z,7.50
2022-12-03T15:41:23.472Z,7.50
2022-12-03T15:43:54.142Z,7.50
2022-12-03T15:46:24.991Z,7.40
2022-12-03T15:48:56.088Z,7.40
2022-12-03T15:51:27.160Z,7.40
2022-12-03T15:53:56.641Z,7.40
2022-12-03T15:56:26.174Z,7.40
2022-12-03T15:58:55.601Z,7.40
2022-12-03T16:01:25.747Z,7.40
2022-12-03T16:03:55.281Z,7.30
2022-12-03T16:06:24.730Z,7.40
2022-12-03T16:08:55.549Z,7.30
2022-12-03T16:11:25.053Z,7.30
2022-12-03T16:13:54.542Z,7.30
2022-12-03T16:16:24.045Z,7.30
2022-12-03T16:18:54.440Z,7.30
2022-12-03T16:21:27.229Z,7.20
2022-12-03T16:23:56.650Z,7.20
2022-12-03T16:26:26.124Z,7.20
2022-12-03T16:28:55.622Z,7.20
2022-12-03T16:31:25.470Z,7.20
2022-12-03T16:33:55.703Z,7.10
2022-12-03T16:36:25.124Z,7.20
2022-12-03T16:38:54.592Z,7.10
2022-12-03T16:41:24.812Z,7.10
2022-12-03T16:43:56.046Z,7.10
2022-12-03T16:46:28.240Z,7.10
2022-12-03T16:48:59.599Z,7.10
2022-12-03T16:51:31.433Z,7.10
2022-12-03T16:54:00.888Z,7.10
2022-12-03T16:56:30.381Z,7.10
2022-12-03T16:58:59.816Z,7.10
2022-12-03T17:01:30.999Z,7.10
2022-12-03T17:04:00.689Z,7.10
2022-12-03T17:06:30.503Z,7.10
2022-12-03T17:08:59.983Z,7.10
2022-12-03T17:11:33.794Z,7.00
2022-12-03T17:14:03.282Z,7.10
2022-12-03T17:16:32.758Z,7.00
2022-12-03T17:19:02.427Z,7.10
2022-12-03T17:21:34.839Z,7.10
2022-12-03T17:24:03.010Z,7.10
2022-12-03T17:26:32.577Z,7.10
2022-12-03T17:29:12.231Z,7.10
2022-12-03T17:31:42.735Z,7.10
2022-12-03T17:34:12.879Z,7.10
2022-12-03T17:36:42.373Z,7.10
2022-12-03T17:39:11.786Z,7.00
2022-12-03T17:41:41.225Z,7.00
2022-12-03T17:44:13.923Z,7.00
2022-12-03T17:46:41.826Z,7.00
2022-12-03T17:49:11.287Z,7.00
2022-12-03T17:51:40.730Z,7.00
2022-12-03T17:54:10.588Z,6.90
2022-12-03T17:56:41.707Z,6.90
2022-12-03T17:59:13.421Z,6.90
2022-12-03T18:01:45.446Z,6.90
2022-12-03T18:04:17.773Z,6.90
2022-12-03T18:06:47.448Z,6.90
2022-12-03T18:09:17.021Z,6.90
2022-12-03T18:11:46.668Z,6.90
2022-12-03T18:14:16.109Z,6.80
2022-12-03T18:16:45.550Z,6.80
2022-12-03T18:19:14.974Z,6.90
2022-12-03T18:21:44.528Z,6.90
2022-12-03T18:24:15.094Z,6.90
2022-12-03T18:26:44.527Z,6.90
2022-12-03T18:29:14.022Z,6.90
2022-12-03T18:31:43.615Z,6.90
2022-12-03T18:34:13.119Z,6.90
2022-12-03T18:36:43.051Z,6.90
2022-12-03T18:39:27.593Z,6.90
2022-12-03T18:41:58.428Z,6.90
2022-12-03T18:44:29.297Z,6.90
2022-12-03T18:47:02.941Z,6.90
2022-12-03T18:49:32.414Z,6.80
2022-12-03T18:52:01.863Z,6.90
2022-12-03T18:54:31.310Z,6.90
2022-12-03T18:57:00.820Z,6.90
2022-12-03T18:59:30.324Z,6.90
2022-12-03T19:02:01.315Z,6.90
2022-12-03T19:04:30.889Z,6.90
2022-12-03T19:07:00.555Z,6.90
2022-12-03T19:09:30.020Z,6.90
2022-12-03T19:11:59.673Z,6.90
2022-12-03T19:14:29.109Z,6.90
2022-12-03T19:16:58.615Z,6.90
2022-12-03T19:19:28.775Z,6.90
2022-12-03T19:21:58.780Z,6.90
2022-12-03T19:24:33.087Z,6.90
2022-12-03T19:27:02.579Z,6.80
2022-12-03T19:29:32.002Z,6.90
2022-12-03T19:32:01.562Z,6.80
2022-12-03T19:34:31.386Z,6.80
2022-12-03T19:37:01.627Z,6.90
2022-12-03T19:39:32.245Z,6.80
2022-12-03T19:42:01.673Z,6.80
2022-12-03T19:44:32.659Z,6.80
2022-12-03T19:47:03.566Z,6.80
2022-12-03T19:49:33.683Z,6.80
2022-12-03T19:52:03.126Z,6.80
2022-12-03T19:54:32.543Z,6.80
2022-12-03T19:57:02.047Z,6.80
2022-12-03T19:59:31.481Z,6.80
2022-12-03T20:02:00.995Z,6.80
2022-12-03T20:04:31.781Z,6.80
2022-12-03T20:07:01.208Z,6.90
2022-12-03T20:09:30.642Z,6.90
2022-12-03T20:12:00.127Z,6.80
2022-12-03T20:14:29.655Z,6.80
2022-12-03T20:16:59.160Z,6.80
2022-12-03T20:19:29.850Z,6.80
2022-12-03T20:22:02.776Z,6.80
2022-12-03T20:24:30.899Z,6.80
2022-12-03T20:27:00.289Z,6.80
2022-12-03T20:29:29.783Z,6.80
2022-12-03T20:32:00.337Z,6.80
2022-12-03T20:34:29.805Z,6.80
2022-12-03T20:36:59.256Z,6.80
2022-12-03T20:39:28.871Z,6.80
2022-12-03T20:41:58.304Z,6.80
2022-12-03T20:44:27.801Z,6.80
2022-12-03T20:46:57.309Z,6.70
2022-12-03T20:49:26.732Z,6.80
2022-12-03T20:51:58.689Z,6.80
2022-12-03T20:54:27.378Z,6.80
2022-12-03T20:56:56.976Z,6.80
2022-12-03T20:59:26.423Z,6.70
2022-12-03T21:01:56.013Z,6.70
2022-12-03T21:04:25.663Z,6.70
2022-12-03T21:06:55.236Z,6.70
2022-12-03T21:09:26.062Z,6.70
2022-12-03T21:11:55.487Z,6.70
2022-12-03T21:14:24.920Z,6.70
2022-12-03T21:17:11.700Z,6.70
2022-12-03T21:19:27.490Z,6.70
2022-12-03T21:21:56.953Z,6.70
2022-12-03T21:24:26.657Z,6.60
2022-12-03T21:26:56.168Z,6.60
2022-12-03T21:29:25.835Z,6.60
2022-12-03T21:31:55.330Z,6.60
2022-12-03T21:34:24.757Z,6.60
2022-12-03T21:36:54.379Z,6.60
2022-12-03T21:39:23.811Z,6.60
2022-12-03T21:42:35.390Z,6.60
2022-12-03T21:44:24.705Z,6.60
2022-12-03T21:47:11.971Z,6.50
2022-12-03T21:49:25.298Z,6.50
2022-12-03T21:51:54.726Z,6.50
2022-12-03T21:54:24.176Z,6.50
2022-12-03T21:56:54.747Z,6.50
2022-12-03T21:59:24.240Z,6.50
2022-12-03T22:01:53.753Z,6.40
2022-12-03T22:04:23.214Z,6.50
2022-12-03T22:06:52.642Z,6.40
2022-12-03T22:09:26.718Z,6.40
2022-12-03T22:11:59.113Z,6.30
2022-12-03T22:14:29.985Z,6.30
2022-12-03T22:16:59.505Z,6.40
2022-12-03T22:19:29.085Z,6.30
2022-12-03T22:21:58.517Z,6.30
2022-12-03T22:24:28.040Z,6.30
2022-12-03T22:26:57.470Z,6.20
2022-12-03T22:29:26.894Z,6.20
2022-12-03T22:31:56.339Z,6.20
2022-12-03T22:34:25.845Z,6.20
2022-12-03T22:36:55.643Z,6.20
2022-12-03T22:39:26.812Z,6.20
2022-12-03T22:41:56.262Z,6.20
2022-12-03T22:44:25.702Z,6.20
2022-12-03T22:46:55.318Z,6.20
2022-12-03T22:49:24.831Z,6.20
2022-12-03T22:51:54.831Z,6.20
2022-12-03T22:54:24.491Z,6.20
2022-12-03T22:56:53.957Z,6.10
2022-12-03T22:59:23.462Z,6.10
2022-12-03T23:01:52.904Z,6.10
2022-12-03T23:04:22.380Z,6.10
2022-12-03T23:06:51.864Z,6.10
2022-12-03T23:09:22.920Z,6.10
2022-12-03T23:11:52.353Z,6.10
2022-12-03T23:14:24.776Z,6.10
2022-12-03T23:16:54.277Z,6.00
2022-12-03T23:19:23.791Z,6.00
2022-12-03T23:21:53.241Z,6.00
2022-12-03T23:24:22.682Z,6.00
2022-12-03T23:26:52.102Z,6.10
2022-12-03T23:29:21.739Z,6.00
2022-12-03T23:31:51.178Z,6.00
2022-12-03T23:34:20.801Z,6.00
2022-12-03T23:36:50.469Z,6.00
2022-12-03T23:39:20.343Z,6.00
2022-12-03T23:41:52.807Z,6.00
2022-12-03T23:44:24.092Z,6.00
2022-12-03T23:46:53.590Z,6.00
2022-12-03T23:49:23.091Z,6.00
2022-12-03T23:51:52.590Z,5.70
2022-12-03T23:54:22.184Z,5.50
2022-12-03T23:56:51.624Z,5.40
2022-12-03T23:59:21.045Z,5.40
